Fairview, Illinois
Current Conditions -  °F | °C
As of 11:54 AM on Thursday 30 Oct 2014 (Local Time) from KPIA Reporting Station
Overcast Overcast  
Wind Chill: 46°   Ceiling: 7000
Heat Index: 49°   Visibility: 10mi
Dew Point: 38°   Wind: 7mph
Humidity: 66%   Direction: 160°SSE
Pressure: 30.12"   Gusts: NA
Location:  40.63°N, 90.16°W
Report Text: KPIA 301654Z 16006KT 10SM OVC070 09/03 A3012 RMK AO2 SLP201 T00940033
Loading
Personal Weather Stations






























Interactive Weather Map
Tropical Storm Tracking
New forecast layout! Learn more

10-Day Weather Forecast

Advertisements
Track Severe Weather on mobile